createdAt,value
2018-11-03T00:01:57.136Z,8.61
2018-11-03T00:04:25.379Z,8.62
2018-11-03T00:06:53.802Z,8.61
2018-11-03T00:09:22.096Z,8.62
2018-11-03T00:11:50.281Z,8.63
2018-11-03T00:14:18.778Z,8.62
2018-11-03T00:16:46.961Z,8.61
2018-11-03T00:19:15.166Z,8.58
2018-11-03T00:21:43.318Z,8.59
2018-11-03T00:24:11.486Z,8.57
2018-11-03T00:26:39.682Z,8.56
2018-11-03T00:29:07.915Z,8.53
2018-11-03T00:31:36.128Z,8.54
2018-11-03T00:34:04.433Z,8.52
2018-11-03T00:36:32.739Z,8.50
2018-11-03T00:39:01.002Z,8.50
2018-11-03T00:41:29.490Z,8.59
2018-11-03T00:43:57.774Z,8.58
2018-11-03T00:46:25.945Z,8.58
2018-11-03T00:48:54.117Z,8.59
2018-11-03T00:51:22.373Z,8.57
2018-11-03T00:53:50.648Z,8.52
2018-11-03T00:56:18.821Z,8.48
2018-11-03T00:58:47.065Z,8.45
2018-11-03T01:01:15.241Z,8.51
2018-11-03T01:03:43.414Z,8.52
2018-11-03T01:06:11.633Z,8.60
2018-11-03T01:08:39.902Z,8.61
2018-11-03T01:11:08.181Z,8.57
2018-11-03T01:13:36.738Z,8.47
2018-11-03T01:16:05.145Z,8.48
2018-11-03T01:18:33.408Z,8.45
2018-11-03T01:21:01.614Z,8.41
2018-11-03T01:23:29.815Z,8.50
2018-11-03T01:25:57.970Z,8.51
2018-11-03T01:28:26.457Z,8.50
2018-11-03T01:30:54.689Z,8.49
2018-11-03T01:33:22.859Z,8.43
2018-11-03T01:35:51.105Z,8.47
2018-11-03T01:38:19.283Z,8.46
2018-11-03T01:40:47.433Z,8.40
2018-11-03T01:43:15.686Z,8.47
2018-11-03T01:45:43.868Z,8.40
2018-11-03T01:48:12.125Z,8.47
2018-11-03T01:50:40.728Z,8.53
2018-11-03T01:53:08.981Z,8.41
2018-11-03T01:55:37.605Z,8.39
2018-11-03T01:58:06.039Z,8.39
2018-11-03T02:00:34.249Z,8.37
2018-11-03T02:03:02.421Z,8.41
2018-11-03T02:05:30.602Z,8.36
2018-11-03T02:07:58.787Z,8.41
2018-11-03T02:10:26.951Z,8.37
2018-11-03T02:12:55.217Z,8.37
2018-11-03T02:15:23.563Z,8.33
2018-11-03T02:17:51.809Z,8.29
2018-11-03T02:20:19.984Z,8.35
2018-11-03T02:22:48.608Z,8.35
2018-11-03T02:25:16.872Z,8.32
2018-11-03T02:27:45.058Z,8.30
2018-11-03T02:30:13.239Z,8.30
2018-11-03T02:32:41.748Z,8.28
2018-11-03T02:35:11.790Z,8.22
2018-11-03T02:37:40.680Z,8.24
2018-11-03T02:40:10.599Z,8.30
2018-11-03T02:42:38.972Z,8.33
2018-11-03T02:45:08.267Z,8.40
2018-11-03T02:47:36.509Z,8.27
2018-11-03T02:50:05.917Z,8.25
2018-11-03T02:52:34.268Z,8.29
2018-11-03T02:55:02.434Z,8.46
2018-11-03T02:57:30.995Z,8.36
2018-11-03T02:59:59.153Z,8.24
2018-11-03T03:02:27.365Z,8.24
2018-11-03T03:04:55.548Z,8.27
2018-11-03T03:07:23.737Z,8.24
2018-11-03T03:09:52.001Z,8.24
2018-11-03T03:12:20.557Z,8.27
2018-11-03T03:14:48.749Z,8.30
2018-11-03T03:17:16.944Z,8.31
2018-11-03T03:19:45.218Z,8.33
2018-11-03T03:22:13.482Z,8.43
2018-11-03T03:24:41.644Z,8.47
2018-11-03T03:27:09.821Z,8.48
2018-11-03T03:29:38.249Z,8.42
2018-11-03T03:32:06.856Z,8.39
2018-11-03T03:34:35.238Z,8.36
2018-11-03T03:37:03.406Z,8.33
2018-11-03T03:39:31.625Z,8.35
2018-11-03T03:41:59.976Z,8.31
2018-11-03T03:44:28.126Z,8.24
2018-11-03T03:46:56.347Z,8.34
2018-11-03T03:49:24.544Z,8.22
2018-11-03T03:51:53.114Z,8.13
2018-11-03T03:54:21.317Z,8.05
2018-11-03T03:56:49.580Z,8.05
2018-11-03T03:59:17.757Z,8.04
2018-11-03T04:01:46.015Z,8.01
2018-11-03T04:04:14.293Z,8.05
2018-11-03T04:06:42.465Z,8.10
2018-11-03T04:09:10.889Z,8.10
2018-11-03T04:11:39.144Z,8.06
2018-11-03T04:14:07.865Z,8.03
2018-11-03T04:16:36.043Z,8.02
2018-11-03T04:19:04.272Z,8.05
2018-11-03T04:21:32.533Z,8.05
2018-11-03T04:24:00.801Z,8.03
2018-11-03T04:26:30.065Z,8.03
2018-11-03T04:28:58.747Z,8.05
2018-11-03T04:31:27.697Z,8.05
2018-11-03T04:33:56.074Z,8.07
2018-11-03T04:36:24.342Z,8.09
2018-11-03T04:38:52.546Z,8.14
2018-11-03T04:41:20.792Z,8.13
2018-11-03T04:43:48.958Z,8.14
2018-11-03T04:46:17.140Z,8.18
2018-11-03T04:48:45.421Z,8.21
2018-11-03T04:51:14.021Z,8.21
2018-11-03T04:53:42.208Z,8.23
2018-11-03T04:56:10.390Z,8.25
2018-11-03T04:58:38.566Z,8.27
2018-11-03T05:01:06.758Z,8.28
2018-11-03T05:03:35.321Z,8.29
2018-11-03T05:06:03.555Z,8.30
2018-11-03T05:08:31.745Z,8.31
2018-11-03T05:10:59.930Z,8.29
2018-11-03T05:13:28.106Z,8.30
2018-11-03T05:15:56.269Z,8.30
2018-11-03T05:18:24.550Z,8.30
2018-11-03T05:20:52.821Z,8.33
2018-11-03T05:23:20.993Z,8.34
2018-11-03T05:25:49.217Z,8.35
2018-11-03T05:28:17.616Z,8.41
2018-11-03T05:30:45.797Z,8.40
2018-11-03T05:33:14.141Z,8.45
2018-11-03T05:35:42.372Z,8.44
2018-11-03T05:38:10.529Z,8.44
2018-11-03T05:40:38.723Z,8.43
2018-11-03T05:43:13.237Z,8.44
2018-11-03T05:45:41.512Z,8.41
2018-11-03T05:48:09.674Z,8.45
2018-11-03T05:50:37.836Z,8.46
2018-11-03T05:53:06.133Z,8.49
2018-11-03T05:55:34.316Z,8.54
2018-11-03T05:58:02.583Z,8.55
2018-11-03T06:00:30.768Z,8.59
2018-11-03T06:02:59.702Z,8.83
2018-11-03T06:05:28.078Z,8.70
2018-11-03T06:07:56.576Z,8.65
2018-11-03T06:10:25.527Z,8.60
2018-11-03T06:12:53.778Z,8.60
2018-11-03T06:15:22.341Z,8.59
2018-11-03T06:17:50.451Z,8.58
2018-11-03T06:20:18.714Z,8.58
2018-11-03T06:22:47.163Z,8.61
2018-11-03T06:25:15.358Z,8.68
2018-11-03T06:27:43.528Z,8.70
2018-11-03T06:30:12.210Z,8.92
2018-11-03T06:32:40.433Z,9.00
2018-11-03T06:35:09.643Z,8.96
2018-11-03T06:37:37.780Z,9.04
2018-11-03T06:40:07.029Z,9.05
2018-11-03T06:42:35.582Z,9.13
2018-11-03T06:45:03.784Z,9.12
2018-11-03T06:47:32.092Z,9.24
2018-11-03T06:50:00.274Z,9.20
2018-11-03T06:52:28.468Z,9.21
2018-11-03T06:54:56.634Z,9.25
2018-11-03T06:57:24.796Z,9.15
2018-11-03T06:59:52.993Z,9.20
2018-11-03T07:02:21.214Z,9.25
2018-11-03T07:04:49.470Z,9.28
2018-11-03T07:07:17.660Z,9.35
2018-11-03T07:09:45.833Z,9.38
2018-11-03T07:12:14.975Z,9.42
2018-11-03T07:14:43.057Z,9.45
2018-11-03T07:17:11.238Z,9.48
2018-11-03T07:19:39.537Z,9.58
2018-11-03T07:22:08.017Z,9.72
2018-11-03T07:24:36.187Z,9.70
2018-11-03T07:27:04.525Z,9.62
2018-11-03T07:29:32.765Z,9.75
2018-11-03T07:32:00.933Z,9.69
2018-11-03T07:34:29.145Z,9.90
2018-11-03T07:36:57.451Z,9.91
2018-11-03T07:39:25.715Z,10.06
2018-11-03T07:41:53.897Z,10.05
2018-11-03T07:44:22.086Z,10.17
2018-11-03T07:46:50.322Z,10.51
2018-11-03T07:49:18.653Z,10.64
2018-11-03T07:51:48.185Z,10.64
2018-11-03T07:54:16.501Z,10.54
2018-11-03T07:56:44.886Z,10.62
2018-11-03T07:59:13.076Z,10.77
2018-11-03T08:01:41.278Z,10.85
2018-11-03T08:04:09.880Z,10.91
2018-11-03T08:06:38.249Z,11.04
2018-11-03T08:09:09.929Z,11.21
2018-11-03T08:11:38.464Z,11.37
2018-11-03T08:14:06.876Z,11.41
2018-11-03T08:16:35.142Z,11.54
2018-11-03T08:19:03.640Z,11.55
2018-11-03T08:21:31.877Z,11.46
2018-11-03T08:24:00.303Z,11.69
2018-11-03T08:26:28.612Z,11.82
2018-11-03T08:28:56.825Z,11.88
2018-11-03T08:31:25.147Z,12.21
2018-11-03T08:33:53.253Z,12.37
2018-11-03T08:36:21.490Z,12.67
2018-11-03T08:38:49.698Z,12.79
2018-11-03T08:41:17.972Z,12.79
2018-11-03T08:43:46.260Z,12.84
2018-11-03T08:46:14.493Z,13.01
2018-11-03T08:48:42.831Z,12.89
2018-11-03T08:51:11.248Z,13.19
2018-11-03T08:53:39.534Z,13.28
2018-11-03T08:56:08.035Z,13.19
2018-11-03T08:58:36.208Z,12.98
2018-11-03T09:01:04.560Z,13.07
2018-11-03T09:03:32.769Z,13.23
2018-11-03T09:06:00.904Z,13.28
2018-11-03T09:08:29.086Z,13.37
2018-11-03T09:10:57.466Z,13.31
2018-11-03T09:13:25.896Z,13.32
2018-11-03T09:15:54.057Z,13.43
2018-11-03T09:18:22.304Z,13.34
2018-11-03T09:20:50.498Z,13.12
2018-11-03T09:23:18.737Z,13.18
2018-11-03T09:25:47.057Z,13.03
2018-11-03T09:28:15.336Z,13.02
2018-11-03T09:30:43.576Z,13.12
2018-11-03T09:33:11.789Z,12.96
2018-11-03T09:35:40.245Z,13.06
2018-11-03T09:38:08.501Z,12.92
2018-11-03T09:40:36.692Z,12.83
2018-11-03T09:43:05.346Z,12.96
2018-11-03T09:45:34.293Z,12.87
2018-11-03T09:48:02.541Z,13.22
2018-11-03T09:50:30.761Z,13.52
2018-11-03T09:52:58.913Z,13.60
2018-11-03T09:55:27.093Z,13.71
2018-11-03T09:57:55.326Z,14.12
2018-11-03T10:00:23.657Z,14.46
2018-11-03T10:02:51.897Z,14.71
2018-11-03T10:05:20.158Z,15.18
2018-11-03T10:07:48.328Z,15.52
2018-11-03T10:10:18.853Z,15.59
2018-11-03T10:12:47.306Z,16.00
2018-11-03T10:15:16.911Z,16.12
2018-11-03T10:17:45.640Z,16.42
2018-11-03T10:20:13.896Z,16.33
2018-11-03T10:22:42.094Z,16.26
2018-11-03T10:25:14.419Z,16.48
2018-11-03T10:27:43.296Z,16.43
2018-11-03T10:30:12.766Z,16.51
2018-11-03T10:32:41.601Z,16.33
2018-11-03T10:35:10.786Z,16.20
2018-11-03T10:37:39.220Z,16.38
2018-11-03T10:40:10.370Z,16.45
2018-11-03T10:42:38.678Z,16.23
2018-11-03T10:45:08.512Z,16.64
2018-11-03T10:47:37.045Z,16.45
2018-11-03T10:50:08.183Z,16.80
2018-11-03T10:52:36.469Z,16.48
2018-11-03T10:55:05.073Z,16.27
2018-11-03T10:57:33.262Z,16.39
2018-11-03T11:00:01.473Z,16.70
2018-11-03T11:02:34.977Z,16.54
2018-11-03T11:05:15.098Z,16.88
2018-11-03T11:07:48.524Z,16.47
2018-11-03T11:10:24.891Z,16.48
2018-11-03T11:12:53.892Z,16.14
2018-11-03T11:15:22.090Z,16.16
2018-11-03T11:17:50.286Z,15.99
2018-11-03T11:20:18.510Z,15.62
2018-11-03T11:22:46.693Z,16.04
2018-11-03T11:25:15.051Z,16.43
2018-11-03T11:27:43.210Z,16.82
2018-11-03T11:30:12.213Z,17.10
2018-11-03T11:32:40.659Z,17.28
2018-11-03T11:35:08.816Z,16.41
2018-11-03T11:37:37.253Z,16.80
2018-11-03T11:40:05.978Z,16.96
2018-11-03T11:42:34.298Z,16.78
2018-11-03T11:45:02.614Z,17.39
2018-11-03T11:47:30.815Z,17.52
2018-11-03T11:49:58.996Z,17.33
2018-11-03T11:52:27.269Z,16.89
2018-11-03T11:54:55.733Z,17.18
2018-11-03T11:57:23.917Z,17.33
2018-11-03T11:59:52.193Z,17.26
2018-11-03T12:02:20.417Z,17.47
2018-11-03T12:04:48.759Z,17.46
2018-11-03T12:07:17.119Z,17.57
2018-11-03T12:09:45.497Z,17.23
2018-11-03T12:12:13.772Z,17.15
2018-11-03T12:14:42.181Z,17.07
2018-11-03T12:17:10.417Z,16.83
2018-11-03T12:19:38.617Z,16.97
2018-11-03T12:22:06.877Z,17.27
2018-11-03T12:24:35.221Z,16.97
2018-11-03T12:27:03.504Z,17.13
2018-11-03T12:29:31.735Z,16.54
2018-11-03T12:31:59.986Z,16.68
2018-11-03T12:34:28.255Z,17.12
2018-11-03T12:36:56.524Z,16.88
2018-11-03T12:39:24.808Z,16.50
2018-11-03T12:41:53.074Z,16.46
2018-11-03T12:44:21.362Z,16.25
2018-11-03T12:46:49.556Z,16.71
2018-11-03T12:49:17.952Z,17.25
2018-11-03T12:51:46.180Z,17.43
2018-11-03T12:54:14.602Z,17.40
2018-11-03T12:56:42.844Z,17.16
2018-11-03T12:59:11.177Z,17.00
2018-11-03T13:01:39.411Z,16.73
2018-11-03T13:04:07.867Z,16.62
2018-11-03T13:06:36.146Z,16.03
2018-11-03T13:09:06.814Z,15.63
2018-11-03T13:11:35.221Z,15.61
2018-11-03T13:14:03.612Z,15.62
2018-11-03T13:16:32.270Z,15.51
2018-11-03T13:19:00.481Z,15.48
2018-11-03T13:21:29.596Z,15.59
2018-11-03T13:23:57.757Z,15.40
2018-11-03T13:26:26.205Z,15.64
2018-11-03T13:28:55.201Z,15.66
2018-11-03T13:31:23.388Z,15.44
2018-11-03T13:33:52.000Z,15.47
2018-11-03T13:36:20.282Z,15.54
2018-11-03T13:38:48.568Z,15.84
2018-11-03T13:41:16.770Z,15.98
2018-11-03T13:43:44.988Z,16.10
2018-11-03T13:46:13.296Z,16.15
2018-11-03T13:48:41.828Z,16.34
2018-11-03T13:51:10.054Z,16.22
2018-11-03T13:53:38.592Z,16.22
2018-11-03T13:56:06.814Z,15.71
2018-11-03T13:58:34.978Z,15.56
2018-11-03T14:01:03.182Z,15.54
2018-11-03T14:03:31.409Z,15.75
2018-11-03T14:05:59.968Z,15.25
2018-11-03T14:08:28.169Z,15.08
2018-11-03T14:10:56.405Z,15.15
2018-11-03T14:13:24.554Z,15.25
2018-11-03T14:15:52.812Z,15.01
2018-11-03T14:18:20.982Z,14.84
2018-11-03T14:20:49.157Z,14.77
2018-11-03T14:23:17.992Z,14.65
2018-11-03T14:25:46.949Z,14.61
2018-11-03T14:28:15.201Z,14.79
2018-11-03T14:30:43.395Z,14.96
2018-11-03T14:33:11.608Z,14.93
2018-11-03T14:35:39.961Z,15.04
2018-11-03T14:38:08.225Z,15.01
2018-11-03T14:40:36.390Z,14.84
2018-11-03T14:43:05.413Z,14.75
2018-11-03T14:45:33.648Z,14.80
2018-11-03T14:48:01.924Z,14.60
2018-11-03T14:50:34.173Z,14.66
2018-11-03T14:53:02.593Z,14.49
2018-11-03T14:55:31.376Z,14.45
2018-11-03T14:57:59.654Z,14.24
2018-11-03T15:00:28.058Z,13.94
2018-11-03T15:02:56.262Z,13.83
2018-11-03T15:05:24.782Z,13.60
2018-11-03T15:07:52.990Z,13.51
2018-11-03T15:10:21.205Z,13.37
2018-11-03T15:12:49.557Z,13.34
2018-11-03T15:15:17.761Z,13.30
2018-11-03T15:17:45.941Z,13.18
2018-11-03T15:20:14.133Z,13.07
2018-11-03T15:22:43.317Z,13.05
2018-11-03T15:25:11.855Z,13.04
2018-11-03T15:27:41.677Z,13.03
2018-11-03T15:30:11.148Z,12.93
2018-11-03T15:32:39.748Z,12.89
2018-11-03T15:35:08.662Z,12.95
2018-11-03T15:37:36.906Z,12.85
2018-11-03T15:40:06.595Z,12.85
2018-11-03T15:42:34.873Z,12.82
2018-11-03T15:45:03.185Z,12.77
2018-11-03T15:47:31.387Z,12.72
2018-11-03T15:49:59.568Z,12.67
2018-11-03T15:52:27.744Z,12.59
2018-11-03T15:54:56.014Z,12.45
2018-11-03T15:57:24.206Z,12.44
2018-11-03T15:59:52.504Z,12.41
2018-11-03T16:02:20.751Z,12.34
2018-11-03T16:04:49.036Z,12.34
2018-11-03T16:07:17.302Z,12.27
2018-11-03T16:09:45.487Z,12.20
2018-11-03T16:12:13.737Z,12.13
2018-11-03T16:14:42.250Z,12.24
2018-11-03T16:17:10.438Z,12.26
2018-11-03T16:19:38.726Z,12.32
2018-11-03T16:22:06.950Z,12.29
2018-11-03T16:24:35.502Z,12.21
2018-11-03T16:27:03.929Z,12.22
2018-11-03T16:29:32.100Z,12.21
2018-11-03T16:32:00.436Z,12.21
2018-11-03T16:34:29.180Z,12.22
2018-11-03T16:36:57.433Z,12.12
2018-11-03T16:39:25.601Z,12.15
2018-11-03T16:41:54.169Z,12.15
2018-11-03T16:44:22.375Z,12.17
2018-11-03T16:46:50.677Z,12.19
2018-11-03T16:49:20.724Z,12.15
2018-11-03T16:51:48.930Z,12.12
2018-11-03T16:54:17.533Z,12.11
2018-11-03T16:56:46.370Z,12.08
2018-11-03T16:59:14.534Z,12.07
2018-11-03T17:01:42.754Z,12.08
2018-11-03T17:04:11.234Z,12.05
2018-11-03T17:06:39.490Z,12.02
2018-11-03T17:09:08.614Z,12.04
2018-11-03T17:11:36.918Z,12.10
2018-11-03T17:14:05.154Z,12.05
2018-11-03T17:16:33.326Z,12.05
2018-11-03T17:19:01.963Z,12.08
2018-11-03T17:21:30.199Z,12.08
2018-11-03T17:23:58.478Z,12.10
2018-11-03T17:26:26.758Z,12.08
2018-11-03T17:28:54.917Z,12.04
2018-11-03T17:31:23.962Z,12.02
2018-11-03T17:33:52.141Z,12.02
2018-11-03T17:36:20.358Z,11.99
2018-11-03T17:38:48.541Z,11.95
2018-11-03T17:41:16.818Z,12.02
2018-11-03T17:43:45.085Z,12.06
2018-11-03T17:46:13.456Z,12.04
2018-11-03T17:48:41.655Z,12.01
2018-11-03T17:51:09.820Z,11.99
2018-11-03T17:53:37.996Z,11.97
2018-11-03T17:56:06.278Z,11.95
2018-11-03T17:58:35.074Z,11.95
2018-11-03T18:01:03.369Z,11.91
2018-11-03T18:03:31.930Z,11.78
2018-11-03T18:06:00.191Z,11.73
2018-11-03T18:08:28.374Z,11.72
2018-11-03T18:10:56.654Z,11.63
2018-11-03T18:13:24.822Z,11.59
2018-11-03T18:15:52.996Z,11.63
2018-11-03T18:18:21.273Z,11.60
2018-11-03T18:20:49.461Z,11.58
2018-11-03T18:23:17.716Z,11.54
2018-11-03T18:25:45.960Z,11.57
2018-11-03T18:28:14.381Z,11.56
2018-11-03T18:30:42.792Z,11.53
2018-11-03T18:33:11.149Z,11.53
2018-11-03T18:35:39.243Z,11.51
2018-11-03T18:38:07.490Z,11.58
2018-11-03T18:40:35.681Z,11.57
2018-11-03T18:43:03.877Z,11.62
2018-11-03T18:45:32.062Z,11.63
2018-11-03T18:48:00.258Z,11.59
2018-11-03T18:50:28.458Z,11.54
2018-11-03T18:52:56.671Z,11.54
2018-11-03T18:55:24.830Z,11.46
2018-11-03T18:57:53.033Z,11.46
2018-11-03T19:00:21.223Z,11.40
2018-11-03T19:02:49.455Z,11.41
2018-11-03T19:05:17.681Z,11.45
2018-11-03T19:07:45.958Z,11.39
2018-11-03T19:10:14.201Z,11.39
2018-11-03T19:12:42.576Z,11.39
2018-11-03T19:15:11.261Z,11.38
2018-11-03T19:17:39.656Z,11.39
2018-11-03T19:20:09.967Z,11.40
2018-11-03T19:22:39.070Z,11.41
2018-11-03T19:25:09.115Z,11.37
2018-11-03T19:27:37.324Z,11.36
2018-11-03T19:30:07.404Z,11.35
2018-11-03T19:32:35.576Z,11.37
2018-11-03T19:35:04.099Z,11.28
2018-11-03T19:37:32.358Z,11.25
2018-11-03T19:40:00.920Z,11.28
2018-11-03T19:42:29.138Z,11.24
2018-11-03T19:44:57.563Z,11.25
2018-11-03T19:47:25.786Z,11.18
2018-11-03T19:49:53.961Z,11.21
2018-11-03T19:52:22.193Z,11.18
2018-11-03T19:54:50.483Z,11.20
2018-11-03T19:57:18.673Z,11.17
2018-11-03T19:59:46.947Z,11.14
2018-11-03T20:02:15.217Z,11.12
2018-11-03T20:04:43.416Z,11.12
2018-11-03T20:07:11.765Z,11.14
2018-11-03T20:09:39.969Z,11.15
2018-11-03T20:12:08.586Z,11.16
2018-11-03T20:14:37.116Z,11.09
2018-11-03T20:17:05.634Z,11.12
2018-11-03T20:19:33.964Z,11.13
2018-11-03T20:22:02.231Z,11.11
2018-11-03T20:24:30.405Z,11.14
2018-11-03T20:26:58.589Z,11.13
2018-11-03T20:29:28.067Z,11.17
2018-11-03T20:31:56.325Z,11.17
2018-11-03T20:34:24.656Z,11.23
2018-11-03T20:36:52.944Z,11.32
2018-11-03T20:39:21.236Z,11.28
2018-11-03T20:41:49.522Z,11.22
2018-11-03T20:44:17.673Z,11.21
2018-11-03T20:46:46.158Z,11.16
2018-11-03T20:49:14.349Z,11.16
2018-11-03T20:51:42.829Z,11.14
2018-11-03T20:54:11.073Z,11.08
2018-11-03T20:56:39.340Z,11.07
2018-11-03T20:59:07.561Z,11.07
2018-11-03T21:01:36.161Z,11.04
2018-11-03T21:04:04.493Z,11.03
2018-11-03T21:06:32.766Z,11.01
2018-11-03T21:09:00.939Z,11.02
2018-11-03T21:11:29.859Z,11.05
2018-11-03T21:13:58.831Z,11.04
2018-11-03T21:16:28.115Z,11.04
2018-11-03T21:18:56.829Z,11.03
2018-11-03T21:21:25.474Z,10.93
2018-11-03T21:23:54.025Z,10.95
2018-11-03T21:26:22.480Z,10.99
2018-11-03T21:28:51.044Z,11.04
2018-11-03T21:31:19.873Z,11.05
2018-11-03T21:33:48.198Z,11.03
2018-11-03T21:36:17.407Z,11.05
2018-11-03T21:38:46.612Z,11.01
2018-11-03T21:41:15.650Z,11.04
2018-11-03T21:43:44.312Z,11.04
2018-11-03T21:46:12.696Z,11.10
2018-11-03T21:48:41.262Z,11.09
2018-11-03T21:51:10.194Z,11.04
2018-11-03T21:53:39.284Z,11.05
2018-11-03T21:56:08.046Z,11.02
2018-11-03T21:58:36.782Z,11.07
2018-11-03T22:01:05.499Z,11.05
2018-11-03T22:03:33.929Z,11.10
2018-11-03T22:06:03.601Z,11.08
2018-11-03T22:08:32.597Z,10.97
2018-11-03T22:11:01.269Z,10.90
2018-11-03T22:13:29.767Z,10.96
2018-11-03T22:15:58.060Z,10.98
2018-11-03T22:18:29.795Z,10.91
2018-11-03T22:20:58.727Z,10.88
2018-11-03T22:23:27.371Z,10.86
2018-11-03T22:25:56.307Z,10.87
2018-11-03T22:28:25.211Z,10.87
2018-11-03T22:30:53.918Z,10.88
2018-11-03T22:33:22.478Z,10.88
2018-11-03T22:35:51.860Z,10.90
2018-11-03T22:38:21.132Z,10.88
2018-11-03T22:40:49.804Z,10.93
2018-11-03T22:43:18.564Z,10.96
2018-11-03T22:45:47.170Z,10.96
2018-11-03T22:48:16.582Z,10.93
2018-11-03T22:50:45.377Z,10.89
2018-11-03T22:53:14.599Z,10.86
2018-11-03T22:55:43.933Z,10.86
2018-11-03T22:58:13.232Z,10.86
2018-11-03T23:00:47.494Z,10.84
2018-11-03T23:03:16.723Z,10.87
2018-11-03T23:05:45.125Z,10.84
2018-11-03T23:08:14.359Z,10.86
2018-11-03T23:10:43.721Z,10.85
2018-11-03T23:13:12.560Z,10.85
2018-11-03T23:15:41.963Z,10.86
2018-11-03T23:18:10.577Z,10.84
2018-11-03T23:20:38.777Z,10.81
2018-11-03T23:23:06.951Z,10.80
2018-11-03T23:25:35.226Z,10.77
2018-11-03T23:28:03.498Z,10.80
2018-11-03T23:30:31.683Z,10.79
2018-11-03T23:32:59.861Z,10.80
2018-11-03T23:35:28.121Z,10.78
2018-11-03T23:37:56.475Z,10.80
2018-11-03T23:40:24.718Z,10.81
2018-11-03T23:42:52.833Z,10.80
2018-11-03T23:45:21.010Z,10.80
2018-11-03T23:47:49.188Z,10.79
2018-11-03T23:50:17.370Z,10.79
2018-11-03T23:52:46.846Z,10.80
2018-11-03T23:55:15.046Z,10.81
2018-11-03T23:57:43.312Z,10.78
